sensor_id;sensor_type;location;lat;lon;timestamp;temperature;humidity
70734;DHT22;58320;48.804;9.252;2022-08-24T00:02:21;18.30;63.80
70734;DHT22;58320;48.804;9.252;2022-08-24T00:04:49;18.20;64.10
70734;DHT22;58320;48.804;9.252;2022-08-24T00:07:16;18.20;64.20
70734;DHT22;58320;48.804;9.252;2022-08-24T00:09:44;18.10;64.30
70734;DHT22;58320;48.804;9.252;2022-08-24T00:12:11;18.10;64.40
70734;DHT22;58320;48.804;9.252;2022-08-24T00:14:39;18.10;64.30
70734;DHT22;58320;48.804;9.252;2022-08-24T00:17:06;18.10;64.40
70734;DHT22;58320;48.804;9.252;2022-08-24T00:19:32;18.00;64.60
70734;DHT22;58320;48.804;9.252;2022-08-24T00:21:58;18.00;64.80
70734;DHT22;58320;48.804;9.252;2022-08-24T00:24:25;17.90;65.00
70734;DHT22;58320;48.804;9.252;2022-08-24T00:26:52;17.90;65.00
70734;DHT22;58320;48.804;9.252;2022-08-24T00:29:20;17.90;65.10
70734;DHT22;58320;48.804;9.252;2022-08-24T00:31:47;17.80;65.30
70734;DHT22;58320;48.804;9.252;2022-08-24T00:34:14;17.80;65.50
70734;DHT22;58320;48.804;9.252;2022-08-24T00:36:42;17.70;65.70
70734;DHT22;58320;48.804;9.252;2022-08-24T00:39:09;17.70;66.00
70734;DHT22;58320;48.804;9.252;2022-08-24T00:41:39;17.70;66.00
70734;DHT22;58320;48.804;9.252;2022-08-24T00:44:10;17.70;66.00
70734;DHT22;58320;48.804;9.252;2022-08-24T00:49:28;17.60;66.40
70734;DHT22;58320;48.804;9.252;2022-08-24T00:52:06;17.60;66.80
70734;DHT22;58320;48.804;9.252;2022-08-24T00:54:39;17.50;67.00
70734;DHT22;58320;48.804;9.252;2022-08-24T00:57:09;17.50;67.20
70734;DHT22;58320;48.804;9.252;2022-08-24T00:59:40;17.40;67.10
70734;DHT22;58320;48.804;9.252;2022-08-24T01:02:16;17.40;67.20
70734;DHT22;58320;48.804;9.252;2022-08-24T01:04:58;17.40;67.20
70734;DHT22;58320;48.804;9.252;2022-08-24T01:07:28;17.30;67.50
70734;DHT22;58320;48.804;9.252;2022-08-24T01:10:00;17.20;67.70
70734;DHT22;58320;48.804;9.252;2022-08-24T01:12:32;17.20;68.00
70734;DHT22;58320;48.804;9.252;2022-08-24T01:15:02;17.10;68.10
70734;DHT22;58320;48.804;9.252;2022-08-24T01:17:30;17.10;68.20
70734;DHT22;58320;48.804;9.252;2022-08-24T01:20:15;17.00;68.40
70734;DHT22;58320;48.804;9.252;2022-08-24T01:25:55;16.80;68.90
70734;DHT22;58320;48.804;9.252;2022-08-24T01:28:21;16.70;69.30
70734;DHT22;58320;48.804;9.252;2022-08-24T01:30:47;16.70;69.60
70734;DHT22;58320;48.804;9.252;2022-08-24T01:33:25;16.60;69.70
70734;DHT22;58320;48.804;9.252;2022-08-24T01:36:30;16.60;70.00
70734;DHT22;58320;48.804;9.252;2022-08-24T01:38:59;16.50;70.10
70734;DHT22;58320;48.804;9.252;2022-08-24T01:41:29;16.40;70.50
70734;DHT22;58320;48.804;9.252;2022-08-24T01:43:56;16.40;70.90
70734;DHT22;58320;48.804;9.252;2022-08-24T01:46:23;16.40;71.10
70734;DHT22;58320;48.804;9.252;2022-08-24T01:48:48;16.30;71.10
70734;DHT22;58320;48.804;9.252;2022-08-24T01:51:14;16.30;71.20
70734;DHT22;58320;48.804;9.252;2022-08-24T01:53:40;16.30;71.40
70734;DHT22;58320;48.804;9.252;2022-08-24T01:56:06;16.20;71.80
70734;DHT22;58320;48.804;9.252;2022-08-24T01:58:31;16.20;72.00
70734;DHT22;58320;48.804;9.252;2022-08-24T02:00:57;16.20;72.10
70734;DHT22;58320;48.804;9.252;2022-08-24T02:03:23;16.20;72.40
70734;DHT22;58320;48.804;9.252;2022-08-24T02:05:49;16.20;72.50
70734;DHT22;58320;48.804;9.252;2022-08-24T02:08:16;16.20;72.60
70734;DHT22;58320;48.804;9.252;2022-08-24T02:10:42;16.20;72.80
70734;DHT22;58320;48.804;9.252;2022-08-24T02:13:08;16.20;72.80
70734;DHT22;58320;48.804;9.252;2022-08-24T02:15:36;16.30;73.00
70734;DHT22;58320;48.804;9.252;2022-08-24T02:18:06;16.30;72.90
70734;DHT22;58320;48.804;9.252;2022-08-24T02:20:34;16.20;72.70
70734;DHT22;58320;48.804;9.252;2022-08-24T02:23:01;16.20;72.90
70734;DHT22;58320;48.804;9.252;2022-08-24T02:25:28;16.20;72.90
70734;DHT22;58320;48.804;9.252;2022-08-24T02:27:56;16.20;72.90
70734;DHT22;58320;48.804;9.252;2022-08-24T02:30:24;16.20;72.90
70734;DHT22;58320;48.804;9.252;2022-08-24T02:32:50;16.10;73.10
70734;DHT22;58320;48.804;9.252;2022-08-24T02:35:17;16.10;73.30
70734;DHT22;58320;48.804;9.252;2022-08-24T02:37:43;16.10;73.30
70734;DHT22;58320;48.804;9.252;2022-08-24T02:40:10;16.10;73.50
70734;DHT22;58320;48.804;9.252;2022-08-24T02:42:36;16.10;73.50
70734;DHT22;58320;48.804;9.252;2022-08-24T02:45:03;16.00;73.60
70734;DHT22;58320;48.804;9.252;2022-08-24T02:47:29;16.00;73.50
70734;DHT22;58320;48.804;9.252;2022-08-24T02:49:55;16.00;73.40
70734;DHT22;58320;48.804;9.252;2022-08-24T02:52:21;15.90;73.50
70734;DHT22;58320;48.804;9.252;2022-08-24T02:54:47;15.90;73.70
70734;DHT22;58320;48.804;9.252;2022-08-24T02:57:14;15.90;74.00
70734;DHT22;58320;48.804;9.252;2022-08-24T02:59:40;15.80;74.10
70734;DHT22;58320;48.804;9.252;2022-08-24T03:02:06;15.80;74.30
70734;DHT22;58320;48.804;9.252;2022-08-24T03:04:32;15.80;74.30
70734;DHT22;58320;48.804;9.252;2022-08-24T03:06:58;15.70;74.40
70734;DHT22;58320;48.804;9.252;2022-08-24T03:09:24;15.70;74.40
70734;DHT22;58320;48.804;9.252;2022-08-24T03:11:49;15.60;74.40
70734;DHT22;58320;48.804;9.252;2022-08-24T03:14:15;15.60;74.50
70734;DHT22;58320;48.804;9.252;2022-08-24T03:16:42;15.60;74.90
70734;DHT22;58320;48.804;9.252;2022-08-24T03:19:10;15.60;75.00
70734;DHT22;58320;48.804;9.252;2022-08-24T03:21:36;15.60;75.00
70734;DHT22;58320;48.804;9.252;2022-08-24T03:24:02;15.60;74.90
70734;DHT22;58320;48.804;9.252;2022-08-24T03:26:28;15.50;75.00
70734;DHT22;58320;48.804;9.252;2022-08-24T03:28:54;15.50;75.20
70734;DHT22;58320;48.804;9.252;2022-08-24T03:31:20;15.50;75.60
70734;DHT22;58320;48.804;9.252;2022-08-24T03:33:46;15.50;75.80
70734;DHT22;58320;48.804;9.252;2022-08-24T03:36:12;15.40;75.80
70734;DHT22;58320;48.804;9.252;2022-08-24T03:38:38;15.40;76.00
70734;DHT22;58320;48.804;9.252;2022-08-24T03:41:04;15.40;75.80
70734;DHT22;58320;48.804;9.252;2022-08-24T03:43:30;15.40;75.80
70734;DHT22;58320;48.804;9.252;2022-08-24T03:46:11;15.30;75.80
70734;DHT22;58320;48.804;9.252;2022-08-24T03:48:39;15.30;75.80
70734;DHT22;58320;48.804;9.252;2022-08-24T03:51:17;15.20;75.70
70734;DHT22;58320;48.804;9.252;2022-08-24T03:53:45;15.20;75.80
70734;DHT22;58320;48.804;9.252;2022-08-24T03:56:11;15.20;76.00
70734;DHT22;58320;48.804;9.252;2022-08-24T03:58:38;15.20;76.10
70734;DHT22;58320;48.804;9.252;2022-08-24T04:01:06;15.20;76.30
70734;DHT22;58320;48.804;9.252;2022-08-24T04:03:40;15.10;76.50
70734;DHT22;58320;48.804;9.252;2022-08-24T04:06:08;15.10;76.60
70734;DHT22;58320;48.804;9.252;2022-08-24T04:08:35;15.10;76.70
70734;DHT22;58320;48.804;9.252;2022-08-24T04:11:01;15.10;77.10
70734;DHT22;58320;48.804;9.252;2022-08-24T04:13:28;15.00;77.40
70734;DHT22;58320;48.804;9.252;2022-08-24T04:16:17;15.00;77.90
70734;DHT22;58320;48.804;9.252;2022-08-24T04:18:45;15.00;77.90
70734;DHT22;58320;48.804;9.252;2022-08-24T04:21:28;15.00;78.00
70734;DHT22;58320;48.804;9.252;2022-08-24T04:23:56;15.00;78.10
70734;DHT22;58320;48.804;9.252;2022-08-24T04:26:26;15.00;78.00
70734;DHT22;58320;48.804;9.252;2022-08-24T04:28:53;15.00;78.10
70734;DHT22;58320;48.804;9.252;2022-08-24T04:31:19;15.00;78.20
70734;DHT22;58320;48.804;9.252;2022-08-24T04:33:46;15.00;78.00
70734;DHT22;58320;48.804;9.252;2022-08-24T04:36:16;15.00;77.80
70734;DHT22;58320;48.804;9.252;2022-08-24T04:38:43;15.10;77.30
70734;DHT22;58320;48.804;9.252;2022-08-24T04:41:10;15.10;77.10
70734;DHT22;58320;48.804;9.252;2022-08-24T04:43:37;15.10;77.00
70734;DHT22;58320;48.804;9.252;2022-08-24T04:46:07;15.20;76.70
70734;DHT22;58320;48.804;9.252;2022-08-24T04:48:34;15.20;76.40
70734;DHT22;58320;48.804;9.252;2022-08-24T04:51:02;15.30;76.10
70734;DHT22;58320;48.804;9.252;2022-08-24T04:53:29;15.30;75.80
70734;DHT22;58320;48.804;9.252;2022-08-24T04:55:56;15.30;75.60
70734;DHT22;58320;48.804;9.252;2022-08-24T04:58:23;15.30;75.40
70734;DHT22;58320;48.804;9.252;2022-08-24T05:00:49;15.40;75.20
70734;DHT22;58320;48.804;9.252;2022-08-24T05:03:15;15.50;74.90
70734;DHT22;58320;48.804;9.252;2022-08-24T05:05:44;15.50;74.60
70734;DHT22;58320;48.804;9.252;2022-08-24T05:08:12;15.60;74.60
70734;DHT22;58320;48.804;9.252;2022-08-24T05:10:41;15.70;74.60
70734;DHT22;58320;48.804;9.252;2022-08-24T05:13:09;15.70;74.30
70734;DHT22;58320;48.804;9.252;2022-08-24T05:15:39;15.80;73.90
70734;DHT22;58320;48.804;9.252;2022-08-24T05:18:07;15.90;73.70
70734;DHT22;58320;48.804;9.252;2022-08-24T05:20:33;16.00;73.40
70734;DHT22;58320;48.804;9.252;2022-08-24T05:23:02;16.10;73.10
70734;DHT22;58320;48.804;9.252;2022-08-24T05:25:28;16.20;72.80
70734;DHT22;58320;48.804;9.252;2022-08-24T05:27:54;16.30;72.40
70734;DHT22;58320;48.804;9.252;2022-08-24T05:30:20;16.40;71.90
70734;DHT22;58320;48.804;9.252;2022-08-24T05:32:45;16.50;71.50
70734;DHT22;58320;48.804;9.252;2022-08-24T05:35:11;16.70;71.20
70734;DHT22;58320;48.804;9.252;2022-08-24T05:37:38;16.80;70.90
70734;DHT22;58320;48.804;9.252;2022-08-24T05:40:07;16.90;70.40
70734;DHT22;58320;48.804;9.252;2022-08-24T05:42:35;17.10;70.00
70734;DHT22;58320;48.804;9.252;2022-08-24T05:45:02;17.20;69.90
70734;DHT22;58320;48.804;9.252;2022-08-24T05:47:28;17.30;69.80
70734;DHT22;58320;48.804;9.252;2022-08-24T05:49:54;17.40;69.70
70734;DHT22;58320;48.804;9.252;2022-08-24T05:52:21;17.50;69.50
70734;DHT22;58320;48.804;9.252;2022-08-24T05:54:57;17.60;68.90
70734;DHT22;58320;48.804;9.252;2022-08-24T05:57:25;17.70;68.30
70734;DHT22;58320;48.804;9.252;2022-08-24T05:59:54;17.80;67.90
70734;DHT22;58320;48.804;9.252;2022-08-24T06:02:20;17.80;67.70
70734;DHT22;58320;48.804;9.252;2022-08-24T06:04:47;17.90;67.40
70734;DHT22;58320;48.804;9.252;2022-08-24T06:07:15;18.00;66.90
70734;DHT22;58320;48.804;9.252;2022-08-24T06:09:41;18.10;66.60
70734;DHT22;58320;48.804;9.252;2022-08-24T06:12:08;18.30;66.40
70734;DHT22;58320;48.804;9.252;2022-08-24T06:14:35;18.40;65.80
70734;DHT22;58320;48.804;9.252;2022-08-24T06:17:03;18.60;65.60
70734;DHT22;58320;48.804;9.252;2022-08-24T06:19:30;18.80;64.70
70734;DHT22;58320;48.804;9.252;2022-08-24T06:21:57;19.00;63.70
70734;DHT22;58320;48.804;9.252;2022-08-24T06:24:25;19.10;63.50
70734;DHT22;58320;48.804;9.252;2022-08-24T06:27:11;19.20;63.20
70734;DHT22;58320;48.804;9.252;2022-08-24T06:30:02;19.30;62.80
70734;DHT22;58320;48.804;9.252;2022-08-24T06:32:31;19.40;62.70
70734;DHT22;58320;48.804;9.252;2022-08-24T06:34:57;19.60;62.30
70734;DHT22;58320;48.804;9.252;2022-08-24T06:37:24;19.70;61.10
70734;DHT22;58320;48.804;9.252;2022-08-24T06:39:52;19.80;61.40
70734;DHT22;58320;48.804;9.252;2022-08-24T06:42:19;19.90;60.00
70734;DHT22;58320;48.804;9.252;2022-08-24T06:44:45;20.00;57.80
70734;DHT22;58320;48.804;9.252;2022-08-24T06:47:11;20.10;57.90
70734;DHT22;58320;48.804;9.252;2022-08-24T06:49:37;20.20;58.00
70734;DHT22;58320;48.804;9.252;2022-08-24T06:52:04;20.40;58.00
70734;DHT22;58320;48.804;9.252;2022-08-24T06:54:30;20.60;56.90
70734;DHT22;58320;48.804;9.252;2022-08-24T06:56:57;20.80;56.30
70734;DHT22;58320;48.804;9.252;2022-08-24T06:59:27;21.00;55.50
70734;DHT22;58320;48.804;9.252;2022-08-24T07:01:56;21.20;54.40
70734;DHT22;58320;48.804;9.252;2022-08-24T07:04:26;21.30;54.20
70734;DHT22;58320;48.804;9.252;2022-08-24T07:06:54;21.50;54.40
70734;DHT22;58320;48.804;9.252;2022-08-24T07:09:20;21.60;54.10
70734;DHT22;58320;48.804;9.252;2022-08-24T07:11:50;21.80;53.10
70734;DHT22;58320;48.804;9.252;2022-08-24T07:14:16;21.90;52.30
70734;DHT22;58320;48.804;9.252;2022-08-24T07:16:43;22.10;52.80
70734;DHT22;58320;48.804;9.252;2022-08-24T07:19:09;22.20;51.70
70734;DHT22;58320;48.804;9.252;2022-08-24T07:21:35;22.40;51.80
70734;DHT22;58320;48.804;9.252;2022-08-24T07:24:01;22.60;51.80
70734;DHT22;58320;48.804;9.252;2022-08-24T07:26:30;22.80;51.00
70734;DHT22;58320;48.804;9.252;2022-08-24T07:28:59;23.00;49.50
70734;DHT22;58320;48.804;9.252;2022-08-24T07:31:35;23.00;48.70
70734;DHT22;58320;48.804;9.252;2022-08-24T07:34:05;23.00;49.90
70734;DHT22;58320;48.804;9.252;2022-08-24T07:36:33;23.10;49.10
70734;DHT22;58320;48.804;9.252;2022-08-24T07:38:59;23.30;49.90
70734;DHT22;58320;48.804;9.252;2022-08-24T07:41:26;23.40;49.50
70734;DHT22;58320;48.804;9.252;2022-08-24T07:43:53;23.50;49.90
70734;DHT22;58320;48.804;9.252;2022-08-24T07:46:20;23.60;49.40
70734;DHT22;58320;48.804;9.252;2022-08-24T07:48:46;23.60;49.80
70734;DHT22;58320;48.804;9.252;2022-08-24T07:51:15;23.60;49.30
70734;DHT22;58320;48.804;9.252;2022-08-24T07:53:42;23.70;49.10
70734;DHT22;58320;48.804;9.252;2022-08-24T07:56:09;23.60;48.80
70734;DHT22;58320;48.804;9.252;2022-08-24T07:58:36;23.60;48.90
70734;DHT22;58320;48.804;9.252;2022-08-24T08:01:03;23.60;48.70
70734;DHT22;58320;48.804;9.252;2022-08-24T08:03:31;23.80;48.50
70734;DHT22;58320;48.804;9.252;2022-08-24T08:06:01;23.80;48.40
70734;DHT22;58320;48.804;9.252;2022-08-24T08:08:29;23.90;49.00
70734;DHT22;58320;48.804;9.252;2022-08-24T08:10:55;24.00;48.30
70734;DHT22;58320;48.804;9.252;2022-08-24T08:13:21;24.20;48.50
70734;DHT22;58320;48.804;9.252;2022-08-24T08:15:47;24.40;46.90
70734;DHT22;58320;48.804;9.252;2022-08-24T08:18:14;24.70;46.40
70734;DHT22;58320;48.804;9.252;2022-08-24T08:20:41;24.90;44.20
70734;DHT22;58320;48.804;9.252;2022-08-24T08:23:08;25.10;43.40
70734;DHT22;58320;48.804;9.252;2022-08-24T08:25:54;25.20;44.20
70734;DHT22;58320;48.804;9.252;2022-08-24T08:28:22;25.50;42.50
70734;DHT22;58320;48.804;9.252;2022-08-24T08:30:49;25.70;42.40
70734;DHT22;58320;48.804;9.252;2022-08-24T08:33:16;25.90;41.90
70734;DHT22;58320;48.804;9.252;2022-08-24T08:35:43;25.90;41.20
70734;DHT22;58320;48.804;9.252;2022-08-24T08:38:09;26.10;41.10
70734;DHT22;58320;48.804;9.252;2022-08-24T08:46:17;26.20;40.20
70734;DHT22;58320;48.804;9.252;2022-08-24T08:49:29;26.20;40.50
70734;DHT22;58320;48.804;9.252;2022-08-24T09:06:55;27.10;38.10
70734;DHT22;58320;48.804;9.252;2022-08-24T09:09:55;27.10;38.10
70734;DHT22;58320;48.804;9.252;2022-08-24T09:15:44;27.20;38.80
70734;DHT22;58320;48.804;9.252;2022-08-24T09:36:10;27.80;38.40
70734;DHT22;58320;48.804;9.252;2022-08-24T09:38:58;27.90;38.20
70734;DHT22;58320;48.804;9.252;2022-08-24T09:56:23;28.50;37.10
70734;DHT22;58320;48.804;9.252;2022-08-24T10:04:30;28.80;36.30
70734;DHT22;58320;48.804;9.252;2022-08-24T10:10:26;28.80;37.10
70734;DHT22;58320;48.804;9.252;2022-08-24T10:18:44;29.30;35.60
70734;DHT22;58320;48.804;9.252;2022-08-24T10:33:19;29.70;36.20
70734;DHT22;58320;48.804;9.252;2022-08-24T10:48:43;30.10;34.80
70734;DHT22;58320;48.804;9.252;2022-08-24T10:51:38;30.40;34.40
70734;DHT22;58320;48.804;9.252;2022-08-24T10:54:15;30.50;34.20
70734;DHT22;58320;48.804;9.252;2022-08-24T10:57:14;30.60;34.60
70734;DHT22;58320;48.804;9.252;2022-08-24T11:02:36;30.80;34.30
70734;DHT22;58320;48.804;9.252;2022-08-24T11:05:12;30.60;34.50
70734;DHT22;58320;48.804;9.252;2022-08-24T11:08:09;30.60;34.50
70734;DHT22;58320;48.804;9.252;2022-08-24T11:10:44;30.80;34.50
70734;DHT22;58320;48.804;9.252;2022-08-24T11:13:24;30.80;33.90
70734;DHT22;58320;48.804;9.252;2022-08-24T11:15:57;30.80;33.40
70734;DHT22;58320;48.804;9.252;2022-08-24T11:18:25;31.00;33.50
70734;DHT22;58320;48.804;9.252;2022-08-24T11:21:10;31.00;33.40
70734;DHT22;58320;48.804;9.252;2022-08-24T11:27:00;31.30;33.00
70734;DHT22;58320;48.804;9.252;2022-08-24T11:35:38;33.80;30.60
70734;DHT22;58320;48.804;9.252;2022-08-24T11:40:41;35.90;27.60
70734;DHT22;58320;48.804;9.252;2022-08-24T11:48:38;37.60;25.90
70734;DHT22;58320;48.804;9.252;2022-08-24T11:54:23;38.30;25.10
70734;DHT22;58320;48.804;9.252;2022-08-24T11:57:13;38.50;24.80
70734;DHT22;58320;48.804;9.252;2022-08-24T12:00:03;38.90;24.60
70734;DHT22;58320;48.804;9.252;2022-08-24T12:03:21;38.90;24.60
70734;DHT22;58320;48.804;9.252;2022-08-24T12:08:52;37.90;24.80
70734;DHT22;58320;48.804;9.252;2022-08-24T12:11:50;37.80;24.70
70734;DHT22;58320;48.804;9.252;2022-08-24T12:14:30;37.50;25.10
70734;DHT22;58320;48.804;9.252;2022-08-24T12:17:08;36.90;25.60
70734;DHT22;58320;48.804;9.252;2022-08-24T12:19:38;36.80;25.80
70734;DHT22;58320;48.804;9.252;2022-08-24T12:22:12;37.00;25.80
70734;DHT22;58320;48.804;9.252;2022-08-24T12:24:49;37.40;25.70
70734;DHT22;58320;48.804;9.252;2022-08-24T12:27:23;37.70;25.30
70734;DHT22;58320;48.804;9.252;2022-08-24T12:35:10;38.20;24.60
70734;DHT22;58320;48.804;9.252;2022-08-24T12:37:50;37.60;24.70
70734;DHT22;58320;48.804;9.252;2022-08-24T12:40:35;37.10;25.20
70734;DHT22;58320;48.804;9.252;2022-08-24T12:43:28;36.70;25.30
70734;DHT22;58320;48.804;9.252;2022-08-24T12:45:58;36.50;26.00
70734;DHT22;58320;48.804;9.252;2022-08-24T12:48:34;36.70;25.40
70734;DHT22;58320;48.804;9.252;2022-08-24T12:57:11;35.30;26.40
70734;DHT22;58320;48.804;9.252;2022-08-24T12:59:49;34.30;27.30
70734;DHT22;58320;48.804;9.252;2022-08-24T13:09:46;33.80;27.20
70734;DHT22;58320;48.804;9.252;2022-08-24T13:39:40;39.20;24.00
70734;DHT22;58320;48.804;9.252;2022-08-24T13:45:23;39.30;24.00
70734;DHT22;58320;48.804;9.252;2022-08-24T13:51:28;39.30;24.20
70734;DHT22;58320;48.804;9.252;2022-08-24T14:05:48;40.70;23.30
70734;DHT22;58320;48.804;9.252;2022-08-24T14:25:38;39.70;24.70
70734;DHT22;58320;48.804;9.252;2022-08-24T14:33:54;39.60;25.40
70734;DHT22;58320;48.804;9.252;2022-08-24T14:39:35;39.80;24.80
70734;DHT22;58320;48.804;9.252;2022-08-24T14:42:53;39.40;25.00
70734;DHT22;58320;48.804;9.252;2022-08-24T14:45:39;39.40;25.50
70734;DHT22;58320;48.804;9.252;2022-08-24T14:51:46;39.90;24.90
70734;DHT22;58320;48.804;9.252;2022-08-24T14:57:51;38.00;26.80
70734;DHT22;58320;48.804;9.252;2022-08-24T15:07:17;39.40;25.60
70734;DHT22;58320;48.804;9.252;2022-08-24T15:10:12;39.60;25.60
70734;DHT22;58320;48.804;9.252;2022-08-24T15:12:47;40.40;24.80
70734;DHT22;58320;48.804;9.252;2022-08-24T15:15:33;40.40;25.00
70734;DHT22;58320;48.804;9.252;2022-08-24T15:18:32;40.80;24.80
70734;DHT22;58320;48.804;9.252;2022-08-24T15:24:06;39.50;26.10
70734;DHT22;58320;48.804;9.252;2022-08-24T15:29:32;36.70;28.50
70734;DHT22;58320;48.804;9.252;2022-08-24T15:32:09;37.00;28.60
70734;DHT22;58320;48.804;9.252;2022-08-24T15:40:22;38.00;27.40
70734;DHT22;58320;48.804;9.252;2022-08-24T15:42:58;37.40;28.10
70734;DHT22;58320;48.804;9.252;2022-08-24T15:45:29;36.70;29.00
70734;DHT22;58320;48.804;9.252;2022-08-24T15:47:56;37.30;28.70
70734;DHT22;58320;48.804;9.252;2022-08-24T15:50:31;38.10;27.70
70734;DHT22;58320;48.804;9.252;2022-08-24T15:53:23;38.90;27.40
70734;DHT22;58320;48.804;9.252;2022-08-24T15:55:50;39.00;26.80
70734;DHT22;58320;48.804;9.252;2022-08-24T15:58:32;38.80;27.20
70734;DHT22;58320;48.804;9.252;2022-08-24T16:12:24;38.20;28.00
70734;DHT22;58320;48.804;9.252;2022-08-24T16:15:16;37.70;28.00
70734;DHT22;58320;48.804;9.252;2022-08-24T16:17:49;36.40;29.50
70734;DHT22;58320;48.804;9.252;2022-08-24T16:20:30;35.60;30.40
70734;DHT22;58320;48.804;9.252;2022-08-24T16:23:00;35.10;31.10
70734;DHT22;58320;48.804;9.252;2022-08-24T16:25:42;34.50;31.60
70734;DHT22;58320;48.804;9.252;2022-08-24T16:30:52;33.80;32.70
70734;DHT22;58320;48.804;9.252;2022-08-24T16:36:02;32.90;33.80
70734;DHT22;58320;48.804;9.252;2022-08-24T16:38:30;32.30;34.70
70734;DHT22;58320;48.804;9.252;2022-08-24T16:40:59;32.10;34.70
70734;DHT22;58320;48.804;9.252;2022-08-24T16:43:27;31.80;35.20
70734;DHT22;58320;48.804;9.252;2022-08-24T16:45:54;31.60;35.50
70734;DHT22;58320;48.804;9.252;2022-08-24T16:48:20;31.50;35.80
70734;DHT22;58320;48.804;9.252;2022-08-24T16:50:46;31.40;35.90
70734;DHT22;58320;48.804;9.252;2022-08-24T16:53:12;31.10;36.20
70734;DHT22;58320;48.804;9.252;2022-08-24T16:55:37;31.10;36.50
70734;DHT22;58320;48.804;9.252;2022-08-24T16:58:04;30.90;37.00
70734;DHT22;58320;48.804;9.252;2022-08-24T17:00:31;30.70;37.20
70734;DHT22;58320;48.804;9.252;2022-08-24T17:02:56;30.50;37.60
70734;DHT22;58320;48.804;9.252;2022-08-24T17:05:22;30.30;37.70
70734;DHT22;58320;48.804;9.252;2022-08-24T17:07:48;30.30;37.80
70734;DHT22;58320;48.804;9.252;2022-08-24T17:10:17;30.40;37.70
70734;DHT22;58320;48.804;9.252;2022-08-24T17:12:44;30.40;37.80
70734;DHT22;58320;48.804;9.252;2022-08-24T17:15:11;30.20;38.00
70734;DHT22;58320;48.804;9.252;2022-08-24T17:17:38;30.20;38.10
70734;DHT22;58320;48.804;9.252;2022-08-24T17:20:08;30.60;37.80
70734;DHT22;58320;48.804;9.252;2022-08-24T17:22:35;31.00;37.10
70734;DHT22;58320;48.804;9.252;2022-08-24T17:25:03;31.00;37.00
70734;DHT22;58320;48.804;9.252;2022-08-24T17:27:31;30.70;37.40
70734;DHT22;58320;48.804;9.252;2022-08-24T17:29:59;30.40;37.80
70734;DHT22;58320;48.804;9.252;2022-08-24T17:32:26;30.20;38.30
70734;DHT22;58320;48.804;9.252;2022-08-24T17:34:52;29.80;38.80
70734;DHT22;58320;48.804;9.252;2022-08-24T17:37:18;29.50;39.20
70734;DHT22;58320;48.804;9.252;2022-08-24T17:39:44;29.20;39.60
70734;DHT22;58320;48.804;9.252;2022-08-24T17:42:10;28.90;40.10
70734;DHT22;58320;48.804;9.252;2022-08-24T17:44:36;28.70;40.70
70734;DHT22;58320;48.804;9.252;2022-08-24T17:47:05;28.50;41.30
70734;DHT22;58320;48.804;9.252;2022-08-24T17:49:31;28.30;41.40
70734;DHT22;58320;48.804;9.252;2022-08-24T17:51:58;28.10;41.80
70734;DHT22;58320;48.804;9.252;2022-08-24T17:54:24;27.90;42.10
70734;DHT22;58320;48.804;9.252;2022-08-24T17:56:53;27.70;42.70
70734;DHT22;58320;48.804;9.252;2022-08-24T17:59:28;27.60;43.10
70734;DHT22;58320;48.804;9.252;2022-08-24T18:02:01;27.50;43.40
70734;DHT22;58320;48.804;9.252;2022-08-24T18:04:29;27.40;43.50
70734;DHT22;58320;48.804;9.252;2022-08-24T18:06:58;27.30;43.80
70734;DHT22;58320;48.804;9.252;2022-08-24T18:09:29;27.20;44.10
70734;DHT22;58320;48.804;9.252;2022-08-24T18:12:00;27.00;44.30
70734;DHT22;58320;48.804;9.252;2022-08-24T18:14:28;26.90;45.00
70734;DHT22;58320;48.804;9.252;2022-08-24T18:16:56;26.80;45.30
70734;DHT22;58320;48.804;9.252;2022-08-24T18:19:23;26.60;45.30
70734;DHT22;58320;48.804;9.252;2022-08-24T18:21:49;26.50;45.60
70734;DHT22;58320;48.804;9.252;2022-08-24T18:24:16;26.40;46.20
70734;DHT22;58320;48.804;9.252;2022-08-24T18:26:42;26.30;46.30
70734;DHT22;58320;48.804;9.252;2022-08-24T18:29:14;26.20;46.70
70734;DHT22;58320;48.804;9.252;2022-08-24T18:31:42;26.10;47.10
70734;DHT22;58320;48.804;9.252;2022-08-24T18:34:16;26.00;47.10
70734;DHT22;58320;48.804;9.252;2022-08-24T18:36:47;25.90;47.30
70734;DHT22;58320;48.804;9.252;2022-08-24T18:39:13;25.70;47.80
70734;DHT22;58320;48.804;9.252;2022-08-24T18:41:40;25.60;47.90
70734;DHT22;58320;48.804;9.252;2022-08-24T18:44:09;25.50;48.30
70734;DHT22;58320;48.804;9.252;2022-08-24T18:46:36;25.40;48.40
70734;DHT22;58320;48.804;9.252;2022-08-24T18:49:03;25.40;48.70
70734;DHT22;58320;48.804;9.252;2022-08-24T18:51:32;25.30;48.90
70734;DHT22;58320;48.804;9.252;2022-08-24T18:54:04;25.30;49.20
70734;DHT22;58320;48.804;9.252;2022-08-24T18:56:41;25.20;49.30
70734;DHT22;58320;48.804;9.252;2022-08-24T18:59:12;25.20;49.40
70734;DHT22;58320;48.804;9.252;2022-08-24T19:01:44;25.10;49.80
70734;DHT22;58320;48.804;9.252;2022-08-24T19:04:30;25.10;50.00
70734;DHT22;58320;48.804;9.252;2022-08-24T19:06:56;25.10;49.90
70734;DHT22;58320;48.804;9.252;2022-08-24T19:09:22;25.00;50.20
70734;DHT22;58320;48.804;9.252;2022-08-24T19:11:48;25.00;50.10
70734;DHT22;58320;48.804;9.252;2022-08-24T19:14:14;24.90;50.30
70734;DHT22;58320;48.804;9.252;2022-08-24T19:16:42;24.80;50.60
70734;DHT22;58320;48.804;9.252;2022-08-24T19:19:08;24.80;50.60
70734;DHT22;58320;48.804;9.252;2022-08-24T19:21:34;24.70;50.90
70734;DHT22;58320;48.804;9.252;2022-08-24T19:24:02;24.60;50.90
70734;DHT22;58320;48.804;9.252;2022-08-24T19:26:29;24.60;51.10
70734;DHT22;58320;48.804;9.252;2022-08-24T19:28:56;24.60;51.40
70734;DHT22;58320;48.804;9.252;2022-08-24T19:31:24;24.50;51.50
70734;DHT22;58320;48.804;9.252;2022-08-24T19:33:51;24.50;51.60
70734;DHT22;58320;48.804;9.252;2022-08-24T19:36:18;24.40;51.80
70734;DHT22;58320;48.804;9.252;2022-08-24T19:38:44;24.30;52.10
70734;DHT22;58320;48.804;9.252;2022-08-24T19:41:10;24.20;52.20
70734;DHT22;58320;48.804;9.252;2022-08-24T19:43:36;24.20;52.40
70734;DHT22;58320;48.804;9.252;2022-08-24T19:46:25;24.10;52.60
70734;DHT22;58320;48.804;9.252;2022-08-24T19:48:52;24.10;52.80
70734;DHT22;58320;48.804;9.252;2022-08-24T19:51:18;24.00;52.90
70734;DHT22;58320;48.804;9.252;2022-08-24T19:53:44;24.00;53.30
70734;DHT22;58320;48.804;9.252;2022-08-24T19:56:10;23.90;53.30
70734;DHT22;58320;48.804;9.252;2022-08-24T19:58:45;23.90;53.70
70734;DHT22;58320;48.804;9.252;2022-08-24T20:01:18;23.90;53.40
70734;DHT22;58320;48.804;9.252;2022-08-24T20:03:46;23.80;53.40
70734;DHT22;58320;48.804;9.252;2022-08-24T20:06:13;23.80;53.40
70734;DHT22;58320;48.804;9.252;2022-08-24T20:08:40;23.70;53.80
70734;DHT22;58320;48.804;9.252;2022-08-24T20:11:06;23.70;53.90
70734;DHT22;58320;48.804;9.252;2022-08-24T20:13:33;23.60;54.10